Time;durP1;ratioP1;P1;durP2;ratioP2;P2;SDS_P1;SDS_P2;PMS_P1;PMS_P2;Temp;Humidity;BMP_temperature;BMP_pressure;BME280_temperature;BME280_humidity;BME280_pressure;Samples;Min_cycle;Max_cycle;Signal;HPM_P1;HPM_P2
2021/01/25 00:01:25;;;;;;;0.90;0.50;;;8.30;99.90;;;;;;5010943;28;20669;-75
2021/01/25 00:03:52;;;;;;;3.80;0.97;;;8.20;99.90;;;;;;5010705;28;20286;-77
2021/01/25 00:06:18;;;;;;;1.13;0.40;;;8.10;99.90;;;;;;5011108;28;20211;-78
2021/01/25 00:08:45;;;;;;;5.80;1.90;;;8.20;99.90;;;;;;5010112;28;20212;-74
2021/01/25 00:11:11;;;;;;;7.50;1.07;;;8.30;99.90;;;;;;5010812;28;20275;-79
2021/01/25 00:13:38;;;;;;;2.17;1.07;;;8.30;99.90;;;;;;5010143;28;20208;-82
2021/01/25 00:16:05;;;;;;;1.67;0.60;;;8.30;99.90;;;;;;5011263;28;20614;-82
2021/01/25 00:18:31;;;;;;;1.63;0.77;;;8.30;99.90;;;;;;5010140;28;20219;-79
2021/01/25 00:20:58;;;;;;;6.03;2.07;;;8.30;99.90;;;;;;5010866;28;20208;-80
2021/01/25 00:23:25;;;;;;;4.03;0.97;;;8.30;99.90;;;;;;5010721;28;20294;-76
2021/01/25 00:25:51;;;;;;;5.90;0.73;;;8.30;99.90;;;;;;5010426;28;20212;-78
2021/01/25 00:28:18;;;;;;;5.00;0.97;;;8.30;99.90;;;;;;5010644;28;20212;-80
2021/01/25 00:30:44;;;;;;;1.37;0.60;;;8.30;99.90;;;;;;5010102;28;20204;-76
2021/01/25 00:33:11;;;;;;;3.13;0.57;;;8.20;99.90;;;;;;5010451;28;20562;-78
2021/01/25 00:35:37;;;;;;;0.93;0.30;;;8.10;99.90;;;;;;5010545;28;20231;-82
2021/01/25 00:38:05;;;;;;;1.57;0.33;;;8.00;99.90;;;;;;5010261;28;20204;-77
2021/01/25 00:40:31;;;;;;;1.23;0.20;;;8.00;99.90;;;;;;5010170;28;20212;-81
2021/01/25 00:42:58;;;;;;;1.53;0.20;;;7.90;99.90;;;;;;5010478;28;20232;-77
2021/01/25 00:45:24;;;;;;;1.07;0.37;;;7.80;99.90;;;;;;5011156;28;20205;-78
2021/01/25 00:47:50;;;;;;;0.80;0.20;;;7.70;99.90;;;;;;5010097;28;20208;-74
2021/01/25 00:50:17;;;;;;;0.53;0.20;;;7.70;99.90;;;;;;5010564;28;20208;-73
2021/01/25 00:52:43;;;;;;;2.87;0.30;;;7.70;99.90;;;;;;5010054;28;20293;-78
2021/01/25 00:55:13;;;;;;;0.97;0.30;;;7.60;99.90;;;;;;5009954;28;20209;-77
2021/01/25 00:57:42;;;;;;;0.53;0.30;;;7.70;99.90;;;;;;5009883;28;20204;-81
2021/01/25 01:00:10;;;;;;;2.23;0.40;;;7.70;99.90;;;;;;5010117;28;20685;-75
2021/01/25 01:02:37;;;;;;;2.07;0.43;;;7.70;99.90;;;;;;5010392;28;20228;-81
2021/01/25 01:05:04;;;;;;;2.03;0.60;;;7.70;99.90;;;;;;5010127;28;20208;-77
2021/01/25 01:07:30;;;;;;;4.10;0.30;;;7.70;99.90;;;;;;5009862;28;20637;-82
2021/01/25 01:09:57;;;;;;;1.17;0.53;;;7.70;99.90;;;;;;5010180;28;20675;-81
2021/01/25 01:12:24;;;;;;;1.10;0.43;;;7.80;99.90;;;;;;5010849;28;20200;-75
2021/01/25 01:14:51;;;;;;;2.50;0.60;;;7.80;99.90;;;;;;5009803;28;20680;-79
2021/01/25 01:17:17;;;;;;;1.60;0.60;;;7.80;99.90;;;;;;5010166;28;20211;-79
2021/01/25 01:19:44;;;;;;;0.80;0.40;;;7.80;99.90;;;;;;5009681;28;20582;-79
2021/01/25 01:22:10;;;;;;;1.93;0.40;;;7.80;99.90;;;;;;5009928;28;20738;-80
2021/01/25 01:24:37;;;;;;;0.57;0.30;;;7.80;99.90;;;;;;5010315;28;20240;-77
2021/01/25 01:27:04;;;;;;;1.70;0.20;;;7.80;99.90;;;;;;5014001;28;20208;-81
2021/01/25 01:29:32;;;;;;;1.33;0.40;;;7.80;99.90;;;;;;5013652;28;20204;-80
2021/01/25 01:31:58;;;;;;;5.33;0.30;;;7.80;99.90;;;;;;5013579;28;20668;-77
2021/01/25 01:34:25;;;;;;;2.47;0.43;;;7.80;99.90;;;;;;5013587;28;20212;-81
2021/01/25 01:36:51;;;;;;;2.07;0.57;;;7.80;99.90;;;;;;5013723;28;20208;-81
2021/01/25 01:39:18;;;;;;;0.70;0.40;;;7.80;99.90;;;;;;5013648;28;20204;-79
2021/01/25 01:41:44;;;;;;;4.47;0.90;;;7.90;99.90;;;;;;5013747;28;20208;-79
2021/01/25 01:44:11;;;;;;;2.60;0.60;;;7.90;99.90;;;;;;5013596;28;20606;-81
2021/01/25 01:46:42;;;;;;;3.07;0.70;;;7.90;99.90;;;;;;5011055;28;20688;-76
2021/01/25 01:49:09;;;;;;;1.73;0.50;;;7.90;99.90;;;;;;5012998;28;20205;-79
2021/01/25 01:51:37;;;;;;;3.70;1.13;;;7.90;99.90;;;;;;5016505;28;20208;-81
2021/01/25 01:54:05;;;;;;;6.10;0.90;;;7.90;99.90;;;;;;5023629;28;20208;-83
2021/01/25 01:56:33;;;;;;;4.73;1.20;;;8.00;99.90;;;;;;5013098;28;20589;-81
2021/01/25 01:58:59;;;;;;;8.10;1.60;;;8.00;99.90;;;;;;5013005;28;20215;-77
2021/01/25 02:01:26;;;;;;;4.47;1.27;;;8.00;99.90;;;;;;5013588;28;20204;-79
2021/01/25 02:03:54;;;;;;;2.43;1.10;;;8.00;99.90;;;;;;5017495;28;20289;-73
2021/01/25 02:06:23;;;;;;;1.53;1.03;;;8.00;99.90;;;;;;5013528;28;20205;-79
2021/01/25 02:08:50;;;;;;;2.97;1.67;;;8.00;99.90;;;;;;5012639;28;20642;-82
2021/01/25 02:11:17;;;;;;;5.63;1.20;;;8.00;99.90;;;;;;5013017;28;20204;-85
2021/01/25 02:13:44;;;;;;;3.77;1.10;;;8.00;99.90;;;;;;5012453;28;20214;-75
2021/01/25 02:16:11;;;;;;;6.40;0.90;;;8.00;99.90;;;;;;5013119;28;20258;-80
2021/01/25 02:18:38;;;;;;;7.43;2.50;;;8.00;99.90;;;;;;5012186;28;20208;-85
2021/01/25 02:21:10;;;;;;;2.60;0.93;;;8.10;99.90;;;;;;5012528;28;20211;-86
2021/01/25 02:24:05;;;;;;;4.87;1.27;;;8.20;99.90;;;;;;5012346;28;20274;-77
2021/01/25 02:26:58;;;;;;;9.27;1.23;;;8.20;99.90;;;;;;5012414;28;20219;-83
2021/01/25 02:29:26;;;;;;;5.73;2.00;;;8.20;99.90;;;;;;5013257;28;20633;-81
2021/01/25 02:31:53;;;;;;;7.10;1.27;;;8.20;99.90;;;;;;5012552;28;20223;-80
2021/01/25 02:34:20;;;;;;;1.97;1.37;;;8.20;99.90;;;;;;5012591;28;20215;-84
2021/01/25 02:36:48;;;;;;;3.47;1.73;;;8.20;99.90;;;;;;5011114;28;20266;-80
2021/01/25 02:39:15;;;;;;;7.70;1.73;;;8.20;99.90;;;;;;5012376;28;20216;-76
2021/01/25 02:41:42;;;;;;;2.97;0.93;;;8.20;99.90;;;;;;5011924;28;20267;-75
2021/01/25 02:44:10;;;;;;;8.37;1.37;;;8.20;99.90;;;;;;5012498;28;20313;-82
2021/01/25 02:46:37;;;;;;;3.87;1.60;;;8.20;99.90;;;;;;5011618;28;20216;-78
2021/01/25 02:49:04;;;;;;;2.03;1.27;;;8.20;99.90;;;;;;5012487;28;20246;-75
2021/01/25 02:51:30;;;;;;;8.37;2.13;;;8.20;99.90;;;;;;5012139;28;20263;-73
2021/01/25 02:53:57;;;;;;;5.27;1.53;;;8.20;99.90;;;;;;5012074;28;20201;-74
2021/01/25 02:56:23;;;;;;;5.13;1.53;;;8.20;99.90;;;;;;5012425;28;20260;-80
2021/01/25 02:58:50;;;;;;;6.07;1.20;;;8.20;99.90;;;;;;5011489;28;20624;-80
2021/01/25 03:01:17;;;;;;;5.87;1.23;;;8.30;99.90;;;;;;5012002;28;20703;-75
2021/01/25 03:03:45;;;;;;;5.43;1.13;;;8.20;99.90;;;;;;5011586;28;20243;-77
2021/01/25 03:06:12;;;;;;;11.63;1.47;;;8.20;99.90;;;;;;5012171;28;20204;-77
2021/01/25 03:08:39;;;;;;;3.27;0.80;;;8.20;99.90;;;;;;5024065;28;20583;-79
2021/01/25 03:11:05;;;;;;;5.00;1.37;;;8.30;99.90;;;;;;5017715;28;20199;-82
2021/01/25 03:13:32;;;;;;;2.50;0.80;;;8.30;99.90;;;;;;5020441;28;20223;-77
2021/01/25 03:15:59;;;;;;;2.03;0.80;;;8.30;99.90;;;;;;5011541;28;20209;-78
2021/01/25 03:18:26;;;;;;;5.83;1.27;;;8.30;99.90;;;;;;5011834;28;20265;-77
2021/01/25 03:20:54;;;;;;;3.97;0.60;;;8.30;99.90;;;;;;5011454;28;20266;-82
2021/01/25 03:23:21;;;;;;;4.50;0.83;;;8.30;99.90;;;;;;5012008;28;20235;-81
2021/01/25 03:25:48;;;;;;;3.23;0.73;;;8.30;99.90;;;;;;5011402;28;20212;-79
2021/01/25 03:28:15;;;;;;;1.80;0.90;;;8.40;99.90;;;;;;5011768;28;20200;-79
2021/01/25 03:30:41;;;;;;;1.73;0.70;;;8.30;99.90;;;;;;5011273;28;20577;-76
2021/01/25 03:33:08;;;;;;;3.00;0.70;;;8.30;99.90;;;;;;5011434;28;20204;-78
2021/01/25 03:35:35;;;;;;;3.07;1.03;;;8.30;99.90;;;;;;5011084;28;20593;-76
2021/01/25 03:38:02;;;;;;;2.03;0.40;;;8.30;99.90;;;;;;5011482;28;20216;-83
2021/01/25 03:40:28;;;;;;;3.23;1.50;;;8.20;99.90;;;;;;5011459;28;20204;-74
2021/01/25 03:42:55;;;;;;;1.53;0.70;;;8.10;99.90;;;;;;5011426;28;20597;-79
2021/01/25 03:45:21;;;;;;;1.03;0.40;;;8.10;99.90;;;;;;5011276;28;20215;-77
2021/01/25 03:47:48;;;;;;;2.63;0.67;;;8.10;99.90;;;;;;5011367;28;20842;-82
2021/01/25 03:50:15;;;;;;;2.33;0.40;;;8.10;99.90;;;;;;5011076;28;20204;-75
2021/01/25 03:52:41;;;;;;;2.57;0.70;;;8.10;99.90;;;;;;5011114;28;20243;-80
2021/01/25 03:55:10;;;;;;;5.23;0.97;;;8.10;99.90;;;;;;5011003;28;20223;-78
2021/01/25 03:57:36;;;;;;;3.67;0.93;;;8.10;99.90;;;;;;5010427;28;20664;-82
2021/01/25 04:00:05;;;;;;;4.97;0.93;;;8.10;99.90;;;;;;5010641;28;20216;-76
2021/01/25 04:02:32;;;;;;;1.90;1.07;;;8.20;99.90;;;;;;5010414;28;20200;-78
2021/01/25 04:04:58;;;;;;;1.80;0.63;;;8.20;99.90;;;;;;5011281;28;20212;-83
2021/01/25 04:07:25;;;;;;;1.40;0.83;;;8.20;99.90;;;;;;5011443;28;20208;-82
2021/01/25 04:09:51;;;;;;;3.30;0.53;;;8.20;99.90;;;;;;5010605;28;20223;-82
2021/01/25 04:12:19;;;;;;;4.23;1.30;;;8.20;99.90;;;;;;5011127;28;20212;-79
2021/01/25 04:14:45;;;;;;;1.80;0.60;;;8.20;99.90;;;;;;5010372;28;20684;-81
2021/01/25 04:17:12;;;;;;;3.93;0.73;;;8.20;99.90;;;;;;5010890;28;20212;-81
2021/01/25 04:19:38;;;;;;;2.70;0.80;;;8.20;99.90;;;;;;5010502;28;20208;-77
2021/01/25 04:22:04;;;;;;;2.50;0.70;;;8.20;99.90;;;;;;5010940;28;20211;-79
2021/01/25 04:24:31;;;;;;;4.93;1.67;;;8.20;99.90;;;;;;5009948;28;20711;-74
2021/01/25 04:26:57;;;;;;;2.30;0.70;;;8.20;99.90;;;;;;5010594;28;20702;-74
2021/01/25 04:29:25;;;;;;;2.77;0.90;;;8.10;99.90;;;;;;5010455;28;20231;-78
2021/01/25 04:31:52;;;;;;;1.43;0.80;;;8.20;99.90;;;;;;5010284;28;20684;-76
2021/01/25 04:34:18;;;;;;;2.10;0.87;;;8.20;99.90;;;;;;5010502;28;20204;-79
2021/01/25 04:36:44;;;;;;;5.83;1.20;;;8.20;99.90;;;;;;5010486;28;20204;-80
2021/01/25 04:39:11;;;;;;;3.60;0.90;;;8.10;99.90;;;;;;5010929;28;20216;-74
2021/01/25 04:41:38;;;;;;;4.47;1.03;;;8.10;99.90;;;;;;5010436;28;20204;-82
2021/01/25 04:44:04;;;;;;;3.13;0.97;;;8.10;99.90;;;;;;5010957;28;20235;-79
2021/01/25 04:46:34;;;;;;;1.57;0.77;;;8.10;99.90;;;;;;5010252;28;20211;-80
2021/01/25 04:49:00;;;;;;;4.77;1.60;;;8.10;99.90;;;;;;5011178;28;20204;-76
2021/01/25 04:51:28;;;;;;;1.77;0.90;;;8.10;99.90;;;;;;5010942;28;20208;-76
2021/01/25 04:53:55;;;;;;;2.67;0.70;;;8.10;99.90;;;;;;5012533;28;20207;-80
2021/01/25 04:56:22;;;;;;;2.37;0.70;;;8.00;99.90;;;;;;5013175;28;20216;-83
2021/01/25 04:58:49;;;;;;;2.33;0.90;;;8.10;99.90;;;;;;5011310;28;20208;-76
2021/01/25 05:01:15;;;;;;;3.47;0.83;;;8.10;99.90;;;;;;5014589;28;20215;-78
2021/01/25 05:03:42;;;;;;;6.87;1.23;;;8.10;99.90;;;;;;5014892;28;20235;-76
2021/01/25 05:06:09;;;;;;;1.80;1.07;;;8.00;99.90;;;;;;5016293;28;20231;-83
2021/01/25 05:08:35;;;;;;;3.03;0.80;;;8.10;99.90;;;;;;5013785;28;20699;-77
2021/01/25 05:11:11;;;;;;;4.67;1.27;;;8.00;99.90;;;;;;5014048;28;20205;-80
2021/01/25 05:13:39;;;;;;;2.53;0.90;;;8.00;99.90;;;;;;5013294;28;20231;-77
2021/01/25 05:16:15;;;;;;;3.03;1.07;;;8.00;99.90;;;;;;5013541;28;20201;-74
2021/01/25 05:18:42;;;;;;;3.87;1.10;;;8.10;99.90;;;;;;5013323;28;20207;-75
2021/01/25 05:21:09;;;;;;;1.53;0.70;;;8.00;99.90;;;;;;5013699;28;20200;-78
2021/01/25 05:23:38;;;;;;;4.00;0.60;;;8.10;99.90;;;;;;5013213;28;20228;-78
2021/01/25 05:26:06;;;;;;;3.03;0.77;;;7.90;99.90;;;;;;5013327;28;20292;-78
2021/01/25 05:28:40;;;;;;;2.90;0.67;;;7.80;99.90;;;;;;5013545;28;20226;-76
2021/01/25 05:31:18;;;;;;;3.23;0.70;;;7.60;99.90;;;;;;5013534;28;20261;-73
2021/01/25 05:33:45;;;;;;;3.53;0.90;;;7.50;99.90;;;;;;5013154;28;20698;-79
2021/01/25 05:36:15;;;;;;;1.30;0.70;;;7.40;99.90;;;;;;5013117;28;20216;-76
2021/01/25 05:38:41;;;;;;;2.53;0.73;;;7.30;99.90;;;;;;5013002;28;20208;-80
2021/01/25 05:41:08;;;;;;;1.63;0.60;;;7.30;99.90;;;;;;5013316;28;20208;-80
2021/01/25 05:43:35;;;;;;;1.90;0.73;;;7.30;99.90;;;;;;5012864;28;20711;-75
2021/01/25 05:46:08;;;;;;;3.83;1.20;;;7.30;99.90;;;;;;5013720;28;20216;-78
2021/01/25 05:48:35;;;;;;;1.60;0.80;;;7.30;99.90;;;;;;5012774;28;20679;-77
2021/01/25 05:51:13;;;;;;;4.67;0.97;;;7.30;99.90;;;;;;5013139;28;20207;-76
2021/01/25 05:53:39;;;;;;;4.00;1.23;;;7.30;99.90;;;;;;5012333;28;20254;-74
2021/01/25 05:56:07;;;;;;;2.93;0.90;;;7.30;99.90;;;;;;5012895;28;20216;-77
2021/01/25 05:58:33;;;;;;;3.57;1.00;;;7.30;99.90;;;;;;5012442;28;20753;-78
2021/01/25 06:01:01;;;;;;;5.03;1.17;;;7.30;99.90;;;;;;5012959;28;20597;-76
2021/01/25 06:03:28;;;;;;;4.27;1.67;;;7.30;99.90;;;;;;5012479;28;20231;-74
2021/01/25 06:05:55;;;;;;;6.07;1.40;;;7.30;99.90;;;;;;5012943;28;20207;-71
2021/01/25 06:08:30;;;;;;;4.87;1.30;;;7.30;99.90;;;;;;5013144;28;20204;-76
2021/01/25 06:11:06;;;;;;;2.90;1.27;;;7.40;99.90;;;;;;5012566;28;20204;-74
2021/01/25 06:13:39;;;;;;;6.00;2.17;;;7.40;99.90;;;;;;5013836;28;20207;-76
2021/01/25 06:16:09;;;;;;;4.37;1.20;;;7.40;99.90;;;;;;5014269;28;20196;-74
2021/01/25 06:18:35;;;;;;;3.97;1.70;;;7.40;99.90;;;;;;5012941;28;20204;-73
2021/01/25 06:21:04;;;;;;;2.70;1.13;;;7.30;99.90;;;;;;5014267;28;20208;-74
2021/01/25 06:23:33;;;;;;;3.70;1.23;;;7.20;99.90;;;;;;5006966;28;20721;-78
2021/01/25 06:26:00;;;;;;;2.27;0.93;;;7.10;99.90;;;;;;5013166;28;20684;-80
2021/01/25 06:28:28;;;;;;;4.60;1.20;;;7.00;99.90;;;;;;5013071;28;20212;-76
2021/01/25 06:30:55;;;;;;;2.43;0.87;;;6.90;99.90;;;;;;5013437;28;20680;-80
2021/01/25 06:33:22;;;;;;;2.20;0.80;;;7.00;99.90;;;;;;5000807;28;20222;-78
2021/01/25 06:35:50;;;;;;;1.77;0.63;;;7.10;99.90;;;;;;5012113;28;20213;-76
2021/01/25 06:38:19;;;;;;;1.67;0.73;;;7.00;99.90;;;;;;5012179;28;20212;-74
2021/01/25 06:40:48;;;;;;;6.93;1.30;;;7.00;99.90;;;;;;5011600;28;20687;-78
2021/01/25 06:43:17;;;;;;;3.17;0.80;;;6.90;99.90;;;;;;5011771;28;20715;-78
2021/01/25 06:45:44;;;;;;;6.70;1.60;;;7.00;99.90;;;;;;5011794;28;20223;-79
2021/01/25 06:48:13;;;;;;;5.23;1.23;;;6.80;99.90;;;;;;5012090;28;20204;-74
2021/01/25 06:50:43;;;;;;;5.73;1.17;;;6.90;99.90;;;;;;5011840;28;20210;-78
2021/01/25 06:53:10;;;;;;;4.63;1.20;;;6.80;99.90;;;;;;5011488;28;20212;-80
2021/01/25 06:55:40;;;;;;;4.00;1.00;;;6.80;99.90;;;;;;5011391;28;20223;-79
2021/01/25 06:58:11;;;;;;;7.60;1.40;;;6.80;99.90;;;;;;5011295;28;20213;-80
2021/01/25 07:00:38;;;;;;;4.80;1.10;;;6.70;99.90;;;;;;5011556;28;20212;-76
2021/01/25 07:03:06;;;;;;;3.83;1.10;;;6.70;99.90;;;;;;5012365;28;20204;-78
2021/01/25 07:05:36;;;;;;;4.07;1.23;;;6.60;99.90;;;;;;5011114;28;20274;-79
2021/01/25 07:08:22;;;;;;;5.47;1.47;;;6.60;99.90;;;;;;5011739;28;20209;-78
2021/01/25 07:10:53;;;;;;;4.73;0.97;;;6.80;99.90;;;;;;5011315;28;20220;-79
2021/01/25 07:13:22;;;;;;;4.83;1.43;;;6.70;99.90;;;;;;5011689;28;20204;-80
2021/01/25 07:15:50;;;;;;;3.47;1.00;;;6.70;99.90;;;;;;5011314;28;20219;-80
2021/01/25 07:18:19;;;;;;;5.03;1.40;;;6.80;99.90;;;;;;5011574;28;20216;-78
2021/01/25 07:20:49;;;;;;;2.97;1.10;;;6.90;99.90;;;;;;5011418;28;20216;-79
2021/01/25 07:23:19;;;;;;;6.40;1.50;;;6.90;99.90;;;;;;5010866;28;20228;-79
2021/01/25 07:25:47;;;;;;;10.47;3.13;;;7.00;99.90;;;;;;5011549;28;20212;-82
2021/01/25 07:28:14;;;;;;;5.37;1.57;;;7.10;99.90;;;;;;5011600;28;20214;-79
2021/01/25 07:30:41;;;;;;;11.40;1.93;;;7.00;99.90;;;;;;5011363;28;20212;-81
2021/01/25 07:33:07;;;;;;;7.63;2.20;;;6.90;99.90;;;;;;5011930;28;20251;-83
2021/01/25 07:35:34;;;;;;;5.73;1.37;;;6.80;99.90;;;;;;5011758;28;20216;-84
2021/01/25 07:38:00;;;;;;;3.23;0.90;;;6.70;99.90;;;;;;5011304;28;20219;-83
2021/01/25 07:40:27;;;;;;;3.47;1.60;;;6.80;99.90;;;;;;5011907;28;20205;-75
2021/01/25 07:42:54;;;;;;;5.73;1.67;;;6.80;99.90;;;;;;5011918;28;20218;-78
2021/01/25 07:45:24;;;;;;;5.03;2.00;;;6.90;99.90;;;;;;5011511;28;20204;-74
2021/01/25 07:47:52;;;;;;;4.80;1.63;;;6.90;99.90;;;;;;5010987;28;20691;-77
2021/01/25 07:50:18;;;;;;;7.40;3.30;;;6.90;99.90;;;;;;5011340;28;20605;-77
2021/01/25 07:52:45;;;;;;;7.13;4.00;;;6.90;99.90;;;;;;5010843;28;20282;-78
2021/01/25 07:55:13;;;;;;;12.23;3.83;;;7.00;99.90;;;;;;5011096;28;20208;-79
2021/01/25 07:57:40;;;;;;;4.97;2.70;;;7.00;99.90;;;;;;4997461;28;20204;-82
2021/01/25 08:00:20;;;;;;;6.77;2.43;;;7.00;99.90;;;;;;5011067;28;20204;-80
2021/01/25 08:02:54;;;;;;;6.23;4.03;;;7.10;99.90;;;;;;5010821;28;20243;-74
2021/01/25 08:05:21;;;;;;;9.23;4.00;;;7.00;99.90;;;;;;5010909;28;20239;-73
2021/01/25 08:07:48;;;;;;;7.33;3.10;;;7.10;99.90;;;;;;5010498;28;20220;-79
2021/01/25 08:10:16;;;;;;;6.13;2.50;;;7.00;99.90;;;;;;5011152;28;20208;-80
2021/01/25 08:12:44;;;;;;;6.37;3.60;;;7.10;99.90;;;;;;5010185;28;20212;-80
2021/01/25 08:15:17;;;;;;;9.87;2.33;;;7.10;99.90;;;;;;5010948;28;20238;-79
2021/01/25 08:17:49;;;;;;;4.00;2.57;;;7.20;99.90;;;;;;5010506;28;20216;-80
2021/01/25 08:20:20;;;;;;;6.13;2.70;;;7.20;99.90;;;;;;5010503;28;20299;-80
2021/01/25 08:22:51;;;;;;;10.30;3.50;;;7.20;99.90;;;;;;5010049;28;20715;-80
2021/01/25 08:25:20;;;;;;;7.03;2.50;;;7.20;99.90;;;;;;5010693;28;20259;-80
2021/01/25 08:28:02;;;;;;;4.73;1.60;;;7.10;99.90;;;;;;5010217;28;20240;-79
2021/01/25 08:30:37;;;;;;;8.87;1.80;;;7.00;99.90;;;;;;5010712;28;20287;-74
2021/01/25 08:33:04;;;;;;;10.67;2.37;;;7.10;99.90;;;;;;5011155;28;20593;-80
2021/01/25 08:35:33;;;;;;;4.87;1.60;;;7.10;99.90;;;;;;5012810;28;20212;-80
2021/01/25 08:38:09;;;;;;;9.57;3.23;;;7.10;99.90;;;;;;5014420;28;20294;-82
2021/01/25 08:40:38;;;;;;;12.33;4.50;;;7.00;99.90;;;;;;5014210;28;20216;-78
2021/01/25 08:43:05;;;;;;;4.77;2.70;;;7.20;99.90;;;;;;5015584;28;20216;-71
2021/01/25 08:45:33;;;;;;;6.37;2.90;;;7.20;99.90;;;;;;5014524;28;20578;-83
2021/01/25 08:48:05;;;;;;;6.27;3.30;;;7.20;99.90;;;;;;5019421;28;20687;-72
2021/01/25 08:50:31;;;;;;;9.47;4.00;;;7.10;99.90;;;;;;5014004;28;20230;-71
2021/01/25 08:53:00;;;;;;;11.17;7.03;;;7.10;99.90;;;;;;5017399;28;20672;-72
2021/01/25 08:55:30;;;;;;;12.17;8.10;;;7.20;99.90;;;;;;5014630;28;20223;-72
2021/01/25 08:57:56;;;;;;;6.90;2.60;;;7.20;99.90;;;;;;5019021;28;20212;-72
2021/01/25 09:00:34;;;;;;;5.33;1.87;;;7.00;99.90;;;;;;5016117;28;20208;-80
2021/01/25 09:03:03;;;;;;;14.93;6.33;;;7.00;99.90;;;;;;5015060;28;20231;-72
2021/01/25 09:05:30;;;;;;;5.77;5.13;;;7.10;99.90;;;;;;5012499;28;20216;-83
2021/01/25 09:07:57;;;;;;;6.40;4.57;;;7.10;99.90;;;;;;5026617;28;20584;-74
2021/01/25 09:10:23;;;;;;;6.80;3.23;;;7.10;99.90;;;;;;5018132;28;20284;-81
2021/01/25 09:12:50;;;;;;;7.03;5.53;;;7.10;99.90;;;;;;5014748;28;20680;-80
2021/01/25 09:15:18;;;;;;;9.33;3.63;;;7.10;99.90;;;;;;5016004;28;20231;-81
2021/01/25 09:17:45;;;;;;;3.17;1.70;;;7.20;99.90;;;;;;5016305;28;20212;-79
2021/01/25 09:20:13;;;;;;;3.60;2.27;;;7.20;99.90;;;;;;5015160;28;20664;-82
2021/01/25 09:22:40;;;;;;;7.30;2.57;;;7.40;99.90;;;;;;5013836;28;20586;-82
2021/01/25 09:25:08;;;;;;;7.63;3.00;;;7.40;99.90;;;;;;5014292;28;20236;-81
2021/01/25 09:27:34;;;;;;;5.93;2.00;;;7.30;99.90;;;;;;5015574;28;20208;-81
2021/01/25 09:30:01;;;;;;;6.73;2.57;;;7.20;99.90;;;;;;5018795;28;20204;-81
2021/01/25 09:32:27;;;;;;;10.53;3.67;;;7.40;99.90;;;;;;5017526;28;20216;-80
2021/01/25 09:34:55;;;;;;;6.77;2.03;;;7.50;99.90;;;;;;5016484;28;20211;-82
2021/01/25 09:37:21;;;;;;;4.87;1.97;;;7.40;99.90;;;;;;5016841;28;20239;-82
2021/01/25 09:39:48;;;;;;;4.13;2.73;;;7.50;99.90;;;;;;5016687;28;20227;-82
2021/01/25 09:42:15;;;;;;;11.13;2.90;;;7.60;99.90;;;;;;5015416;28;20208;-81
2021/01/25 09:44:42;;;;;;;2.87;1.13;;;7.60;99.90;;;;;;5019022;28;20235;-73
2021/01/25 09:47:09;;;;;;;13.50;1.87;;;7.50;99.90;;;;;;5014431;28;20205;-81
2021/01/25 09:49:35;;;;;;;6.13;2.40;;;7.50;99.90;;;;;;5018632;28;20587;-81
2021/01/25 09:52:03;;;;;;;4.50;1.20;;;7.60;99.90;;;;;;5007122;28;20626;-82
2021/01/25 09:54:29;;;;;;;3.07;1.50;;;7.40;99.90;;;;;;5016350;28;20205;-80
2021/01/25 09:56:56;;;;;;;4.67;1.27;;;7.40;99.90;;;;;;5015355;28;20248;-80
2021/01/25 09:59:22;;;;;;;4.40;1.37;;;7.60;99.90;;;;;;5015361;28;20231;-82
2021/01/25 10:01:49;;;;;;;3.23;1.17;;;7.80;99.90;;;;;;5013794;28;20262;-81
2021/01/25 10:04:15;;;;;;;2.57;1.37;;;7.70;99.90;;;;;;5016454;28;20264;-82
2021/01/25 10:06:42;;;;;;;2.83;1.13;;;7.90;99.90;;;;;;5014407;28;20675;-81
2021/01/25 10:09:09;;;;;;;4.60;1.50;;;7.90;99.90;;;;;;5004799;28;20724;-82
2021/01/25 10:11:35;;;;;;;4.10;2.17;;;7.90;99.90;;;;;;5012898;28;20254;-75
2021/01/25 10:14:02;;;;;;;8.27;3.33;;;8.00;99.90;;;;;;5014274;28;20592;-80
2021/01/25 10:16:28;;;;;;;3.80;1.80;;;8.10;99.90;;;;;;5013637;28;20224;-72
2021/01/25 10:18:55;;;;;;;5.43;2.43;;;8.20;99.90;;;;;;5018309;28;20207;-82
2021/01/25 10:21:21;;;;;;;9.33;4.87;;;8.40;99.90;;;;;;5022077;28;20204;-79
2021/01/25 10:23:48;;;;;;;7.33;2.83;;;8.40;99.90;;;;;;5019014;28;20235;-82
2021/01/25 10:26:16;;;;;;;7.63;5.10;;;8.50;99.90;;;;;;5016767;28;20208;-83
2021/01/25 10:28:42;;;;;;;3.17;2.60;;;8.70;99.90;;;;;;5013063;28;20212;-82
2021/01/25 10:31:09;;;;;;;8.07;1.80;;;8.70;99.90;;;;;;5013161;28;20211;-80
2021/01/25 10:33:35;;;;;;;6.77;2.33;;;8.70;99.90;;;;;;5018049;28;20203;-82
2021/01/25 10:36:02;;;;;;;4.83;3.10;;;8.70;99.90;;;;;;5017642;28;20212;-75
2021/01/25 10:38:28;;;;;;;8.40;2.47;;;8.70;99.90;;;;;;5014896;28;20581;-76
2021/01/25 10:40:55;;;;;;;9.50;3.63;;;8.80;99.90;;;;;;5020368;28;20215;-80
2021/01/25 10:43:22;;;;;;;6.13;2.97;;;9.00;99.90;;;;;;5013308;28;20208;-79
2021/01/25 10:45:48;;;;;;;8.20;2.90;;;8.90;99.90;;;;;;5013441;28;20219;-83
2021/01/25 10:48:15;;;;;;;7.03;1.77;;;8.90;99.90;;;;;;5011571;28;20219;-82
2021/01/25 10:50:41;;;;;;;7.40;2.70;;;9.00;99.90;;;;;;5009830;28;20204;-82
2021/01/25 10:53:08;;;;;;;3.77;1.87;;;9.10;99.90;;;;;;5019602;28;20615;-81
2021/01/25 10:55:34;;;;;;;5.30;2.50;;;9.10;99.90;;;;;;5018251;28;20227;-82
2021/01/25 10:58:00;;;;;;;5.73;1.43;;;9.00;99.90;;;;;;5016311;28;20199;-82
2021/01/25 11:00:29;;;;;;;5.37;1.90;;;9.00;99.90;;;;;;5020909;28;20235;-79
2021/01/25 11:02:56;;;;;;;5.13;2.57;;;9.00;99.90;;;;;;5028363;28;20211;-79
2021/01/25 11:05:25;;;;;;;12.23;5.63;;;8.90;99.90;;;;;;5014695;28;20232;-82
2021/01/25 11:07:51;;;;;;;18.93;7.90;;;8.90;99.90;;;;;;5010762;28;20217;-81
2021/01/25 11:10:22;;;;;;;9.57;3.50;;;8.80;99.90;;;;;;5020688;28;20208;-83
2021/01/25 11:12:48;;;;;;;9.83;6.73;;;8.70;99.90;;;;;;5017937;28;20250;-82
2021/01/25 11:15:16;;;;;;;8.20;2.50;;;8.60;99.90;;;;;;5012210;28;20219;-81
2021/01/25 11:17:43;;;;;;;4.40;2.03;;;8.70;99.90;;;;;;5026515;28;20212;-83
2021/01/25 11:20:20;;;;;;;13.33;8.53;;;8.90;99.90;;;;;;5109925;27;20565;-83
2021/01/25 11:22:47;;;;;;;7.53;2.87;;;9.00;99.90;;;;;;5107056;28;20537;-79
2021/01/25 11:25:14;;;;;;;4.90;2.40;;;9.20;99.90;;;;;;5109639;28;20208;-82
2021/01/25 11:27:40;;;;;;;3.80;1.63;;;9.40;99.90;;;;;;5105404;28;20213;-82
2021/01/25 11:30:09;;;;;;;8.43;2.20;;;9.60;99.90;;;;;;5106686;28;20564;-82
2021/01/25 11:32:36;;;;;;;4.57;1.87;;;9.50;99.90;;;;;;5104008;28;20201;-78
2021/01/25 11:35:03;;;;;;;6.77;2.27;;;9.30;99.90;;;;;;5080935;28;20201;-76
2021/01/25 11:37:30;;;;;;;3.20;1.37;;;9.30;99.90;;;;;;5095958;28;20205;-75
2021/01/25 11:39:56;;;;;;;4.10;1.27;;;9.10;99.90;;;;;;5096146;28;20669;-81
2021/01/25 11:42:23;;;;;;;4.10;1.53;;;9.30;99.90;;;;;;5095132;28;20202;-82
2021/01/25 11:44:50;;;;;;;6.27;1.50;;;9.60;99.90;;;;;;5095903;28;20210;-82
2021/01/25 11:47:17;;;;;;;4.53;1.67;;;9.80;99.90;;;;;;5097598;28;21035;-83
2021/01/25 11:49:43;;;;;;;5.63;2.07;;;10.10;99.90;;;;;;5094221;28;20201;-82
2021/01/25 11:52:10;;;;;;;5.90;1.70;;;10.10;99.90;;;;;;5099288;28;20278;-82
2021/01/25 11:54:37;;;;;;;5.27;2.13;;;10.10;99.90;;;;;;5100455;28;20205;-81
2021/01/25 11:57:04;;;;;;;4.60;2.33;;;10.10;99.90;;;;;;5107907;28;20205;-83
2021/01/25 11:59:30;;;;;;;3.17;2.23;;;10.20;99.90;;;;;;5107471;28;20229;-82
2021/01/25 12:01:57;;;;;;;5.20;2.77;;;10.40;99.90;;;;;;5107911;28;20211;-74
2021/01/25 12:04:23;;;;;;;9.57;3.20;;;10.30;99.90;;;;;;5093064;28;20236;-83
2021/01/25 12:06:52;;;;;;;3.67;2.73;;;10.50;99.90;;;;;;5106885;28;20227;-81
2021/01/25 12:09:19;;;;;;;11.10;3.53;;;10.60;99.90;;;;;;5102563;28;20212;-81
2021/01/25 12:11:46;;;;;;;7.20;3.30;;;10.90;99.90;;;;;;5097349;28;20209;-80
2021/01/25 12:14:12;;;;;;;6.77;3.53;;;11.20;99.90;;;;;;5107207;28;20204;-80
2021/01/25 12:16:39;;;;;;;3.30;2.37;;;11.10;99.90;;;;;;5106889;28;20208;-79
2021/01/25 12:19:05;;;;;;;9.77;2.63;;;10.70;99.90;;;;;;5100116;28;20345;-79
2021/01/25 12:21:32;;;;;;;6.50;3.07;;;10.70;99.90;;;;;;5094651;28;20201;-79
2021/01/25 12:23:58;;;;;;;5.30;2.33;;;10.80;99.90;;;;;;5105235;28;20208;-80
2021/01/25 12:26:25;;;;;;;6.30;3.30;;;10.90;99.90;;;;;;5094893;28;20201;-81
2021/01/25 12:28:52;;;;;;;7.67;2.30;;;11.10;99.90;;;;;;5104980;28;20204;-81
2021/01/25 12:31:19;;;;;;;6.53;2.87;;;10.90;99.90;;;;;;5091768;28;20201;-78
2021/01/25 12:33:45;;;;;;;3.83;1.93;;;10.80;99.90;;;;;;5091654;28;20206;-81
2021/01/25 12:36:12;;;;;;;4.27;2.10;;;10.90;99.90;;;;;;5090088;28;20577;-81
2021/01/25 12:38:38;;;;;;;3.40;1.63;;;11.20;99.90;;;;;;5091563;28;20225;-81
2021/01/25 12:41:05;;;;;;;5.57;2.70;;;11.40;99.90;;;;;;5090030;28;20209;-80
2021/01/25 12:43:32;;;;;;;4.90;2.90;;;11.60;99.90;;;;;;5090762;28;20646;-82
2021/01/25 12:45:59;;;;;;;3.50;2.40;;;11.20;99.90;;;;;;5079648;28;20202;-78
2021/01/25 12:48:25;;;;;;;5.37;2.20;;;11.30;99.90;;;;;;5089851;28;20213;-81
2021/01/25 12:50:52;;;;;;;3.97;2.40;;;10.60;99.90;;;;;;5088228;28;20210;-80
2021/01/25 12:53:18;;;;;;;3.73;2.20;;;10.70;99.90;;;;;;5083708;28;20213;-82
2021/01/25 12:55:45;;;;;;;3.73;2.47;;;10.70;99.90;;;;;;5092236;28;20638;-80
2021/01/25 12:58:11;;;;;;;5.70;1.27;;;10.50;99.90;;;;;;5092877;28;20205;-83